Time;durP1;ratioP1;P1;durP2;ratioP2;P2;SDS_P1;SDS_P2;PMS_P1;PMS_P2;Temp;Humidity;BMP_temperature;BMP_pressure;BME280_temperature;BME280_humidity;BME280_pressure;Samples;Min_cycle;Max_cycle;Signal;HPM_P1;HPM_P2
2024/03/03 00:02:05;;;;;;;0.10;0.10;;;;;;;;;;4878777;29;20279;-66
2024/03/03 00:04:30;;;;;;;0.20;0.20;;;;;;;;;;4878764;29;20292;-66
2024/03/03 00:06:56;;;;;;;0.43;0.43;;;;;;;;;;4879371;29;20025;-66
2024/03/03 00:09:21;;;;;;;0.52;0.52;;;;;;;;;;4879731;29;20013;-66
2024/03/03 00:11:46;;;;;;;0.10;0.10;;;;;;;;;;4879225;29;20036;-66
2024/03/03 00:14:12;;;;;;;0.65;0.65;;;;;;;;;;4879510;29;20060;-66
2024/03/03 00:16:43;;;;;;;0.43;0.43;;;;;;;;;;4879673;29;20029;-66
2024/03/03 00:19:09;;;;;;;0.10;0.10;;;;;;;;;;4878822;29;20558;-66
2024/03/03 00:21:34;;;;;;;0.10;0.10;;;;;;;;;;4878835;29;20113;-66
2024/03/03 00:23:59;;;;;;;0.10;0.10;;;;;;;;;;4879237;29;20036;-66
2024/03/03 00:26:25;;;;;;;0.00;0.00;;;;;;;;;;4879272;29;20085;-66
2024/03/03 00:28:50;;;;;;;0.20;0.20;;;;;;;;;;4878821;29;20389;-66
2024/03/03 00:31:16;;;;;;;0.10;0.10;;;;;;;;;;4879020;29;20590;-66
2024/03/03 00:33:42;;;;;;;0.30;0.20;;;;;;;;;;4879031;29;20031;-68
2024/03/03 00:36:08;;;;;;;0.20;0.20;;;;;;;;;;4878976;29;20554;-68
2024/03/03 00:38:34;;;;;;;0.20;0.20;;;;;;;;;;4879092;29;20029;-68
2024/03/03 00:41:00;;;;;;;0.10;0.10;;;;;;;;;;4878751;29;20032;-68
2024/03/03 00:43:25;;;;;;;0.10;0.10;;;;;;;;;;4879050;29;20033;-68
2024/03/03 00:45:50;;;;;;;0.17;0.17;;;;;;;;;;4878768;29;20025;-68
2024/03/03 00:48:15;;;;;;;0.40;0.40;;;;;;;;;;4878737;29;20059;-68
2024/03/03 00:50:41;;;;;;;0.00;0.00;;;;;;;;;;4878476;29;20025;-68
2024/03/03 00:53:07;;;;;;;0.10;0.10;;;;;;;;;;4878566;29;20767;-68
2024/03/03 00:55:33;;;;;;;0.20;0.20;;;;;;;;;;4878460;29;20025;-68
2024/03/03 00:57:58;;;;;;;0.03;0.03;;;;;;;;;;4878869;29;20084;-68
2024/03/03 01:00:23;;;;;;;0.63;0.63;;;;;;;;;;4875322;29;20637;-68
2024/03/03 01:02:49;;;;;;;0.10;0.10;;;;;;;;;;4872452;29;20029;-68
2024/03/03 01:05:14;;;;;;;0.17;0.17;;;;;;;;;;4882572;29;20040;-68
2024/03/03 01:07:39;;;;;;;0.13;0.13;;;;;;;;;;4877477;29;20268;-68
2024/03/03 01:10:05;;;;;;;0.13;0.13;;;;;;;;;;4876492;29;20446;-68
2024/03/03 01:12:30;;;;;;;0.08;0.08;;;;;;;;;;4876183;29;20021;-68
2024/03/03 01:14:56;;;;;;;0.63;0.63;;;;;;;;;;4873501;29;20394;-68
2024/03/03 01:17:21;;;;;;;0.17;0.17;;;;;;;;;;4874148;29;20286;-68
2024/03/03 01:19:46;;;;;;;0.10;0.10;;;;;;;;;;4881645;29;20025;-68
2024/03/03 01:22:12;;;;;;;0.10;0.10;;;;;;;;;;4880847;29;20039;-68
2024/03/03 01:24:37;;;;;;;0.20;0.20;;;;;;;;;;4881271;29;20389;-68
2024/03/03 01:27:03;;;;;;;0.25;0.25;;;;;;;;;;4880890;29;20772;-68
2024/03/03 01:29:28;;;;;;;0.00;0.00;;;;;;;;;;4881014;29;20029;-68
2024/03/03 01:31:53;;;;;;;0.45;0.45;;;;;;;;;;4880814;29;20032;-68
2024/03/03 01:34:18;;;;;;;1.10;0.47;;;;;;;;;;4880988;29;20033;-68
2024/03/03 01:36:43;;;;;;;0.20;0.20;;;;;;;;;;4881104;29;20264;-68
2024/03/03 01:39:09;;;;;;;0.50;0.50;;;;;;;;;;4880845;29;20767;-68
2024/03/03 01:41:34;;;;;;;0.00;0.00;;;;;;;;;;4880709;29;20039;-68
2024/03/03 01:44:00;;;;;;;0.10;0.10;;;;;;;;;;4881069;29;20075;-66
2024/03/03 01:46:26;;;;;;;0.20;0.20;;;;;;;;;;4880242;29;20370;-66
2024/03/03 01:48:51;;;;;;;0.00;0.00;;;;;;;;;;4880451;29;20381;-66
2024/03/03 01:51:17;;;;;;;0.10;0.10;;;;;;;;;;4880420;29;20045;-66
2024/03/03 01:53:44;;;;;;;0.20;0.20;;;;;;;;;;4880598;29;20425;-66
2024/03/03 01:56:10;;;;;;;0.10;0.10;;;;;;;;;;4880518;29;20021;-66
2024/03/03 01:58:35;;;;;;;0.32;0.32;;;;;;;;;;4880876;29;20032;-66
2024/03/03 02:01:01;;;;;;;0.20;0.20;;;;;;;;;;4879650;29;20401;-66
2024/03/03 02:03:27;;;;;;;0.08;0.08;;;;;;;;;;4880369;29;20613;-67
2024/03/03 02:05:53;;;;;;;0.00;0.00;;;;;;;;;;4880662;29;20450;-66
2024/03/03 02:08:19;;;;;;;0.10;0.10;;;;;;;;;;4880477;29;20139;-66
2024/03/03 02:10:44;;;;;;;0.10;0.10;;;;;;;;;;4880877;29;20037;-66
2024/03/03 02:13:09;;;;;;;0.27;0.27;;;;;;;;;;4880366;29;20104;-66
2024/03/03 02:15:35;;;;;;;1.45;1.35;;;;;;;;;;4880264;29;20271;-66
2024/03/03 02:18:00;;;;;;;0.00;0.00;;;;;;;;;;4864481;29;20025;-66
2024/03/03 02:20:27;;;;;;;0.55;0.55;;;;;;;;;;4862298;29;20017;-66
2024/03/03 02:22:52;;;;;;;0.10;0.10;;;;;;;;;;4862255;29;20026;-66
2024/03/03 02:25:18;;;;;;;0.30;0.30;;;;;;;;;;4869418;29;20385;-66
2024/03/03 02:27:43;;;;;;;1.30;1.20;;;;;;;;;;4879312;29;20025;-66
2024/03/03 02:30:08;;;;;;;0.87;0.83;;;;;;;;;;4879479;29;20097;-66
2024/03/03 02:32:34;;;;;;;0.10;0.10;;;;;;;;;;4880038;29;20279;-66
2024/03/03 02:34:59;;;;;;;0.45;0.45;;;;;;;;;;4879814;29;20280;-66
2024/03/03 02:37:24;;;;;;;0.30;0.30;;;;;;;;;;4879544;29;20061;-66
2024/03/03 02:39:49;;;;;;;0.10;0.10;;;;;;;;;;4879826;29;20037;-66
2024/03/03 02:42:15;;;;;;;0.10;0.10;;;;;;;;;;4879720;29;20363;-66
2024/03/03 02:44:40;;;;;;;0.28;0.28;;;;;;;;;;4879780;29;20032;-66
2024/03/03 02:47:05;;;;;;;0.15;0.15;;;;;;;;;;4879141;29;20104;-66
2024/03/03 02:49:31;;;;;;;0.50;0.50;;;;;;;;;;4879612;29;20025;-66
2024/03/03 02:51:56;;;;;;;0.10;0.10;;;;;;;;;;4879378;29;20048;-66
2024/03/03 02:54:21;;;;;;;0.10;0.10;;;;;;;;;;4878863;29;20065;-68
2024/03/03 02:56:47;;;;;;;0.20;0.20;;;;;;;;;;4878831;29;20289;-68
2024/03/03 02:59:12;;;;;;;0.00;0.00;;;;;;;;;;4878606;29;20036;-68
2024/03/03 03:01:37;;;;;;;0.43;0.43;;;;;;;;;;4878117;29;20116;-68
2024/03/03 03:04:03;;;;;;;0.20;0.20;;;;;;;;;;4878754;29;20026;-68
2024/03/03 03:06:28;;;;;;;1.55;0.65;;;;;;;;;;4878768;29;20260;-68
2024/03/03 03:08:53;;;;;;;0.20;0.20;;;;;;;;;;4878619;29;20021;-68
2024/03/03 03:11:18;;;;;;;0.10;0.10;;;;;;;;;;4879048;29;20256;-68
2024/03/03 03:13:44;;;;;;;0.63;0.23;;;;;;;;;;4879237;29;20129;-68
2024/03/03 03:16:09;;;;;;;0.43;0.43;;;;;;;;;;4879258;29;20036;-69
2024/03/03 03:18:34;;;;;;;0.93;0.73;;;;;;;;;;4878933;29;20029;-68
2024/03/03 03:20:59;;;;;;;1.00;0.83;;;;;;;;;;4878813;29;20346;-68
2024/03/03 03:23:25;;;;;;;0.10;0.10;;;;;;;;;;4878713;29;20031;-68
2024/03/03 03:25:50;;;;;;;0.00;0.00;;;;;;;;;;4879201;29;20025;-68
2024/03/03 03:28:15;;;;;;;0.03;0.03;;;;;;;;;;4878724;29;20056;-68
2024/03/03 03:30:40;;;;;;;0.20;0.20;;;;;;;;;;4878925;29;20073;-68
2024/03/03 03:33:06;;;;;;;0.00;0.00;;;;;;;;;;4878517;29;20310;-68
2024/03/03 03:35:31;;;;;;;0.28;0.28;;;;;;;;;;4871021;29;20092;-68
2024/03/03 03:37:57;;;;;;;0.30;0.30;;;;;;;;;;4878609;29;20485;-68
2024/03/03 03:40:24;;;;;;;1.03;0.70;;;;;;;;;;4878597;29;20723;-68
2024/03/03 03:42:49;;;;;;;0.20;0.20;;;;;;;;;;4878909;29;20469;-68
2024/03/03 03:45:14;;;;;;;0.33;0.33;;;;;;;;;;4878595;29;20036;-68
2024/03/03 03:47:40;;;;;;;0.80;0.80;;;;;;;;;;4878601;29;20025;-68
2024/03/03 03:50:06;;;;;;;1.02;0.40;;;;;;;;;;4878829;29;20021;-68
2024/03/03 03:52:38;;;;;;;0.00;0.00;;;;;;;;;;4564870;29;9319468;-68
2024/03/03 03:55:03;;;;;;;0.40;0.40;;;;;;;;;;4873655;29;20044;-68
2024/03/03 03:57:29;;;;;;;0.17;0.17;;;;;;;;;;4879163;29;20037;-69
2024/03/03 03:59:54;;;;;;;2.00;0.50;;;;;;;;;;4878811;29;20116;-68
2024/03/03 04:02:19;;;;;;;0.10;0.10;;;;;;;;;;4879313;29;20122;-68
2024/03/03 04:04:44;;;;;;;1.33;0.80;;;;;;;;;;4879067;29;20053;-68
2024/03/03 04:07:10;;;;;;;0.25;0.25;;;;;;;;;;4879206;29;20296;-68
2024/03/03 04:09:35;;;;;;;0.30;0.30;;;;;;;;;;4879124;29;20025;-68
2024/03/03 04:12:00;;;;;;;0.65;0.65;;;;;;;;;;4879230;29;20335;-68
2024/03/03 04:14:26;;;;;;;0.15;0.15;;;;;;;;;;4879203;29;20037;-68
2024/03/03 04:16:51;;;;;;;1.58;0.32;;;;;;;;;;4879272;29;20088;-68
2024/03/03 04:19:17;;;;;;;0.13;0.13;;;;;;;;;;4879580;29;20056;-68
2024/03/03 04:21:42;;;;;;;1.33;1.23;;;;;;;;;;4879618;29;20309;-69
2024/03/03 04:24:08;;;;;;;0.10;0.10;;;;;;;;;;4878238;29;20308;-68
2024/03/03 04:26:33;;;;;;;0.30;0.20;;;;;;;;;;4879077;29;20539;-68
2024/03/03 04:28:58;;;;;;;0.00;0.00;;;;;;;;;;4878878;29;20382;-68
2024/03/03 04:31:23;;;;;;;0.15;0.15;;;;;;;;;;4879125;29;20091;-68
2024/03/03 04:33:49;;;;;;;0.20;0.20;;;;;;;;;;4879075;29;20531;-69
2024/03/03 04:36:14;;;;;;;0.43;0.43;;;;;;;;;;4878988;29;20035;-69
2024/03/03 04:38:40;;;;;;;0.25;0.25;;;;;;;;;;4878976;29;20146;-68
2024/03/03 04:41:15;;;;;;;0.10;0.10;;;;;;;;;;4878670;29;20493;-68
2024/03/03 04:43:40;;;;;;;0.10;0.10;;;;;;;;;;4878757;29;20367;-68
2024/03/03 04:46:06;;;;;;;0.47;0.47;;;;;;;;;;4878867;29;20028;-68
2024/03/03 04:48:31;;;;;;;0.10;0.10;;;;;;;;;;4878771;29;20494;-68
2024/03/03 04:50:56;;;;;;;0.30;0.30;;;;;;;;;;4882206;29;20025;-68
2024/03/03 04:53:29;;;;;;;0.30;0.30;;;;;;;;;;4881538;29;20569;-68
2024/03/03 04:55:54;;;;;;;;;;;;;;;;;;4874571;29;20044;-68
2024/03/03 04:58:19;;;;;;;0.30;0.30;;;;;;;;;;4882235;29;19916;-68
2024/03/03 05:00:44;;;;;;;0.30;0.30;;;;;;;;;;4881899;29;20037;-68
2024/03/03 05:03:09;;;;;;;0.10;0.10;;;;;;;;;;4881784;29;20079;-68
2024/03/03 05:05:35;;;;;;;0.10;0.10;;;;;;;;;;4882028;29;20040;-68
2024/03/03 05:08:00;;;;;;;0.25;0.25;;;;;;;;;;4881619;29;20029;-68
2024/03/03 05:10:25;;;;;;;0.63;0.63;;;;;;;;;;4881763;29;20028;-68
2024/03/03 05:12:50;;;;;;;0.10;0.10;;;;;;;;;;4881944;29;20056;-68
2024/03/03 05:15:15;;;;;;;0.40;0.40;;;;;;;;;;4881801;29;20388;-68
2024/03/03 05:17:41;;;;;;;0.57;0.57;;;;;;;;;;4881855;29;20267;-69
2024/03/03 05:20:07;;;;;;;0.07;0.07;;;;;;;;;;4881884;29;20464;-68
2024/03/03 05:22:33;;;;;;;0.47;0.47;;;;;;;;;;4882012;29;20624;-68
2024/03/03 05:24:58;;;;;;;0.47;0.47;;;;;;;;;;4881718;29;20032;-68
2024/03/03 05:27:23;;;;;;;0.10;0.10;;;;;;;;;;4881559;29;20748;-68
2024/03/03 05:29:48;;;;;;;0.13;0.13;;;;;;;;;;4879463;29;20268;-68
2024/03/03 05:32:13;;;;;;;0.10;0.10;;;;;;;;;;4877866;29;20077;-68
2024/03/03 05:34:39;;;;;;;0.83;0.83;;;;;;;;;;4881285;29;20688;-68
2024/03/03 05:37:04;;;;;;;0.27;0.27;;;;;;;;;;4881856;29;20756;-68
2024/03/03 05:39:30;;;;;;;0.22;0.22;;;;;;;;;;4881413;29;20056;-68
2024/03/03 05:41:56;;;;;;;0.50;0.50;;;;;;;;;;4881429;29;20059;-68
2024/03/03 05:44:21;;;;;;;1.02;0.80;;;;;;;;;;4881360;29;20033;-68
2024/03/03 05:46:46;;;;;;;0.08;0.08;;;;;;;;;;4881126;29;20081;-68
2024/03/03 05:49:12;;;;;;;0.10;0.10;;;;;;;;;;4881156;29;20493;-68
2024/03/03 05:51:37;;;;;;;0.43;0.43;;;;;;;;;;4881101;29;20124;-68
2024/03/03 05:54:03;;;;;;;1.27;0.80;;;;;;;;;;4881302;29;20021;-68
2024/03/03 05:56:28;;;;;;;0.55;0.55;;;;;;;;;;4881180;29;20032;-68
2024/03/03 05:58:54;;;;;;;0.37;0.37;;;;;;;;;;4881133;29;20104;-68
2024/03/03 06:01:19;;;;;;;0.17;0.17;;;;;;;;;;4881288;29;20665;-68
2024/03/03 06:03:44;;;;;;;0.87;0.57;;;;;;;;;;4880871;29;20119;-68
2024/03/03 06:06:10;;;;;;;0.00;0.00;;;;;;;;;;4881115;29;20032;-68
2024/03/03 06:08:39;;;;;;;0.00;0.00;;;;;;;;;;4880853;29;20073;-68
2024/03/03 06:11:06;;;;;;;0.22;0.22;;;;;;;;;;4878354;29;20033;-68
2024/03/03 06:13:31;;;;;;;1.27;1.25;;;;;;;;;;4880304;29;20029;-68
2024/03/03 06:15:57;;;;;;;0.40;0.30;;;;;;;;;;4880223;29;20024;-68
2024/03/03 06:18:22;;;;;;;0.55;0.55;;;;;;;;;;4880423;29;20362;-68
2024/03/03 06:20:48;;;;;;;0.30;0.30;;;;;;;;;;4879984;29;20028;-68
2024/03/03 06:23:13;;;;;;;0.75;0.75;;;;;;;;;;4880651;29;20041;-67
2024/03/03 06:25:38;;;;;;;0.63;0.63;;;;;;;;;;4880662;29;20024;-67
2024/03/03 06:28:03;;;;;;;0.20;0.20;;;;;;;;;;4880553;29;20024;-67
2024/03/03 06:30:29;;;;;;;0.20;0.20;;;;;;;;;;4881104;29;20057;-67
2024/03/03 06:32:54;;;;;;;0.10;0.10;;;;;;;;;;4880083;29;20021;-67
2024/03/03 06:35:19;;;;;;;0.10;0.07;;;;;;;;;;4880334;29;20036;-67
2024/03/03 06:37:44;;;;;;;0.20;0.20;;;;;;;;;;4880525;29;20355;-68
2024/03/03 06:40:10;;;;;;;0.00;0.00;;;;;;;;;;4880225;29;20303;-68
2024/03/03 06:42:37;;;;;;;0.38;0.38;;;;;;;;;;4880400;29;20047;-68
2024/03/03 06:45:03;;;;;;;0.00;0.00;;;;;;;;;;4880384;29;20123;-68
2024/03/03 06:47:28;;;;;;;0.10;0.10;;;;;;;;;;4880120;29;20112;-68
2024/03/03 06:49:54;;;;;;;0.37;0.37;;;;;;;;;;4879953;29;20029;-68
2024/03/03 06:52:20;;;;;;;0.22;0.15;;;;;;;;;;4879850;29;20295;-68
2024/03/03 06:54:45;;;;;;;0.52;0.52;;;;;;;;;;4880007;29;20032;-68
2024/03/03 06:57:10;;;;;;;1.50;1.03;;;;;;;;;;4880134;29;20477;-68
2024/03/03 06:59:37;;;;;;;0.40;0.40;;;;;;;;;;4879998;29;20165;-68
2024/03/03 07:02:03;;;;;;;0.65;0.65;;;;;;;;;;4872804;29;20029;-68
2024/03/03 07:04:28;;;;;;;2.92;1.65;;;;;;;;;;4879519;29;20044;-68
2024/03/03 07:06:54;;;;;;;2.38;1.17;;;;;;;;;;4880110;29;20469;-68
2024/03/03 07:09:22;;;;;;;0.05;0.05;;;;;;;;;;4863270;29;20500;-68
2024/03/03 07:11:48;;;;;;;1.13;1.10;;;;;;;;;;4879213;29;20149;-68
2024/03/03 07:14:14;;;;;;;0.98;0.68;;;;;;;;;;4879344;29;20052;-68
2024/03/03 07:16:39;;;;;;;0.23;0.23;;;;;;;;;;4879902;29;20076;-68
2024/03/03 07:19:04;;;;;;;0.10;0.10;;;;;;;;;;4879767;29;20329;-68
2024/03/03 07:21:29;;;;;;;0.50;0.50;;;;;;;;;;4877863;29;20121;-68
2024/03/03 07:23:54;;;;;;;0.10;0.10;;;;;;;;;;4879182;29;20715;-68
2024/03/03 07:26:20;;;;;;;0.28;0.28;;;;;;;;;;4879323;29;20264;-68
2024/03/03 07:28:45;;;;;;;0.10;0.10;;;;;;;;;;4879381;29;20033;-68
2024/03/03 07:31:10;;;;;;;1.20;0.77;;;;;;;;;;4879592;29;20270;-68
2024/03/03 07:33:35;;;;;;;0.33;0.33;;;;;;;;;;4879384;29;20359;-68
2024/03/03 07:36:01;;;;;;;0.50;0.50;;;;;;;;;;4879267;29;20033;-68
2024/03/03 07:38:26;;;;;;;0.73;0.50;;;;;;;;;;4879450;29;20478;-68
2024/03/03 07:40:51;;;;;;;1.60;1.47;;;;;;;;;;4879246;29;20474;-68
2024/03/03 07:43:16;;;;;;;0.20;0.20;;;;;;;;;;4879401;29;20021;-68
2024/03/03 07:45:42;;;;;;;1.38;1.27;;;;;;;;;;4879456;29;20021;-68
2024/03/03 07:48:07;;;;;;;1.35;1.27;;;;;;;;;;4869118;29;20049;-68
2024/03/03 07:50:32;;;;;;;0.00;0.00;;;;;;;;;;4869902;29;20377;-68
2024/03/03 07:52:57;;;;;;;0.67;0.67;;;;;;;;;;4878308;29;20181;-68
2024/03/03 07:55:23;;;;;;;1.20;0.40;;;;;;;;;;4873164;29;20021;-68
2024/03/03 07:57:48;;;;;;;0.37;0.23;;;;;;;;;;4878857;29;20353;-68
2024/03/03 08:00:13;;;;;;;0.77;0.77;;;;;;;;;;4878585;29;20484;-68
2024/03/03 08:02:39;;;;;;;1.40;1.30;;;;;;;;;;4878731;29;20035;-68
2024/03/03 08:05:04;;;;;;;0.65;0.65;;;;;;;;;;4879228;29;20036;-68
2024/03/03 08:07:30;;;;;;;0.10;0.10;;;;;;;;;;4878928;29;20025;-68
2024/03/03 08:09:55;;;;;;;0.68;0.60;;;;;;;;;;4878670;29;20103;-68
2024/03/03 08:12:20;;;;;;;0.20;0.20;;;;;;;;;;4878576;29;20107;-68
2024/03/03 08:14:45;;;;;;;0.30;0.30;;;;;;;;;;4870302;29;20302;-68
2024/03/03 08:17:10;;;;;;;0.83;0.83;;;;;;;;;;4877818;29;20029;-68
2024/03/03 08:19:36;;;;;;;0.80;0.77;;;;;;;;;;4874493;29;20024;-68
2024/03/03 08:22:01;;;;;;;0.30;0.17;;;;;;;;;;4878129;29;20316;-68
2024/03/03 08:24:26;;;;;;;0.43;0.43;;;;;;;;;;4880065;29;20414;-78
2024/03/03 08:26:51;;;;;;;0.90;0.90;;;;;;;;;;4882627;29;20100;-68
2024/03/03 08:29:17;;;;;;;0.90;0.53;;;;;;;;;;4881421;29;20081;-68
2024/03/03 08:31:44;;;;;;;1.08;0.90;;;;;;;;;;4877382;29;20073;-68
2024/03/03 08:34:09;;;;;;;0.40;0.40;;;;;;;;;;4879230;29;20481;-68
2024/03/03 08:36:35;;;;;;;0.67;0.67;;;;;;;;;;4882694;29;20029;-68
2024/03/03 08:39:00;;;;;;;0.68;0.57;;;;;;;;;;4882308;29;20355;-68
2024/03/03 08:41:25;;;;;;;2.00;1.67;;;;;;;;;;4882225;29;20028;-68
2024/03/03 08:43:50;;;;;;;1.10;0.98;;;;;;;;;;4882689;29;20275;-69
2024/03/03 08:46:16;;;;;;;0.67;0.67;;;;;;;;;;4877766;29;20029;-69
2024/03/03 08:48:41;;;;;;;2.30;1.63;;;;;;;;;;4873101;29;20036;-69
2024/03/03 08:51:07;;;;;;;1.63;1.33;;;;;;;;;;4869276;29;20029;-69
2024/03/03 08:53:33;;;;;;;0.20;0.20;;;;;;;;;;4874542;29;20057;-69
2024/03/03 08:55:58;;;;;;;0.20;0.20;;;;;;;;;;4880767;29;20480;-67
2024/03/03 08:58:24;;;;;;;0.83;0.67;;;;;;;;;;4880895;29;20029;-69
2024/03/03 09:00:49;;;;;;;0.20;0.20;;;;;;;;;;4877845;29;20323;-69
2024/03/03 09:03:14;;;;;;;0.47;0.27;;;;;;;;;;4881722;29;20029;-69
2024/03/03 09:05:40;;;;;;;0.63;0.63;;;;;;;;;;4881955;29;20048;-69
2024/03/03 09:08:05;;;;;;;0.55;0.55;;;;;;;;;;4882247;29;20450;-69
2024/03/03 09:10:30;;;;;;;0.82;0.75;;;;;;;;;;4881442;29;20021;-69
2024/03/03 09:12:57;;;;;;;0.60;0.60;;;;;;;;;;4882288;29;20056;-69
2024/03/03 09:15:22;;;;;;;0.80;0.80;;;;;;;;;;4881566;29;20267;-69
2024/03/03 09:17:47;;;;;;;0.40;0.37;;;;;;;;;;4881739;29;20029;-69
2024/03/03 09:20:13;;;;;;;0.90;0.87;;;;;;;;;;4881920;29;20324;-73
2024/03/03 09:22:38;;;;;;;1.17;1.10;;;;;;;;;;4881461;29;20268;-74
2024/03/03 09:25:04;;;;;;;1.43;0.90;;;;;;;;;;4881727;29;20029;-74
2024/03/03 09:27:29;;;;;;;1.90;0.75;;;;;;;;;;4881668;29;20102;-69
2024/03/03 09:29:54;;;;;;;0.33;0.33;;;;;;;;;;4881424;29;20037;-69
2024/03/03 09:32:19;;;;;;;0.40;0.40;;;;;;;;;;4881408;29;20260;-69
2024/03/03 09:34:45;;;;;;;2.15;1.23;;;;;;;;;;4880919;29;20028;-69
2024/03/03 09:37:13;;;;;;;0.80;0.80;;;;;;;;;;4881589;29;20021;-69
2024/03/03 09:39:38;;;;;;;2.17;1.23;;;;;;;;;;4880982;29;20364;-69
2024/03/03 09:42:03;;;;;;;1.83;1.00;;;;;;;;;;4876884;29;20052;-69
2024/03/03 09:44:34;;;;;;;0.63;0.52;;;;;;;;;;4881005;29;20021;-69
2024/03/03 09:47:00;;;;;;;1.40;1.30;;;;;;;;;;4874389;29;20025;-69
2024/03/03 09:49:26;;;;;;;1.90;1.10;;;;;;;;;;4879749;29;20470;-69
2024/03/03 09:51:53;;;;;;;1.85;1.70;;;;;;;;;;4871923;29;20085;-69
2024/03/03 09:54:18;;;;;;;1.33;1.20;;;;;;;;;;4875909;29;20029;-69
2024/03/03 09:56:44;;;;;;;1.42;1.33;;;;;;;;;;4877989;29;20108;-69
2024/03/03 09:59:10;;;;;;;1.17;1.08;;;;;;;;;;4879615;29;20108;-70
2024/03/03 10:01:37;;;;;;;1.30;1.20;;;;;;;;;;4872608;29;20536;-70
2024/03/03 10:04:04;;;;;;;0.85;0.75;;;;;;;;;;4870887;29;20036;-69
2024/03/03 10:06:30;;;;;;;0.52;0.52;;;;;;;;;;4880407;29;20054;-70
2024/03/03 10:08:56;;;;;;;0.57;0.50;;;;;;;;;;4880293;29;20013;-69
2024/03/03 10:11:21;;;;;;;0.60;0.45;;;;;;;;;;4880454;29;20116;-69
2024/03/03 10:13:47;;;;;;;3.50;1.13;;;;;;;;;;4873420;29;20104;-69
2024/03/03 10:16:14;;;;;;;0.40;0.40;;;;;;;;;;4869097;29;20032;-69
2024/03/03 10:18:39;;;;;;;2.50;0.50;;;;;;;;;;4860718;29;20033;-69
2024/03/03 10:21:04;;;;;;;2.77;2.10;;;;;;;;;;4878911;29;20026;-69
2024/03/03 10:23:31;;;;;;;0.45;0.45;;;;;;;;;;4875448;29;20276;-69
2024/03/03 10:25:57;;;;;;;0.90;0.90;;;;;;;;;;4871615;29;20026;-69
2024/03/03 10:28:23;;;;;;;0.68;0.68;;;;;;;;;;4870575;29;20013;-69
2024/03/03 10:30:48;;;;;;;1.20;0.52;;;;;;;;;;4872732;29;20422;-69
2024/03/03 10:33:13;;;;;;;3.63;1.90;;;;;;;;;;4876308;29;20025;-69
2024/03/03 10:35:38;;;;;;;0.52;0.52;;;;;;;;;;4869865;29;20029;-69
2024/03/03 10:38:04;;;;;;;1.13;1.03;;;;;;;;;;4872558;29;20036;-69
2024/03/03 10:40:29;;;;;;;0.95;0.95;;;;;;;;;;4872287;29;20029;-70
2024/03/03 10:42:58;;;;;;;0.85;0.85;;;;;;;;;;4875907;29;20518;-69
2024/03/03 10:45:23;;;;;;;0.65;0.65;;;;;;;;;;4876290;29;20380;-70
2024/03/03 10:47:49;;;;;;;1.13;0.90;;;;;;;;;;4874932;29;20025;-70
2024/03/03 10:50:15;;;;;;;0.47;0.45;;;;;;;;;;4877645;29;20089;-69
2024/03/03 10:52:40;;;;;;;0.75;0.73;;;;;;;;;;4875934;29;20049;-70
2024/03/03 10:55:08;;;;;;;4.80;1.17;;;;;;;;;;4874261;29;20076;-71
2024/03/03 10:57:34;;;;;;;0.55;0.55;;;;;;;;;;4876776;29;20033;-69
2024/03/03 11:00:00;;;;;;;0.60;0.60;;;;;;;;;;4873312;29;20025;-70
2024/03/03 11:02:29;;;;;;;1.00;0.93;;;;;;;;;;4876417;29;20036;-70
2024/03/03 11:04:55;;;;;;;2.35;0.90;;;;;;;;;;4874124;29;20036;-70
2024/03/03 11:07:21;;;;;;;0.20;0.20;;;;;;;;;;4875700;29;20020;-70
2024/03/03 11:09:47;;;;;;;0.25;0.25;;;;;;;;;;4874411;29;20018;-70
2024/03/03 11:12:17;;;;;;;0.38;0.38;;;;;;;;;;4877320;29;20029;-70
2024/03/03 11:14:45;;;;;;;1.27;1.15;;;;;;;;;;4874827;29;20029;-71
2024/03/03 11:17:15;;;;;;;1.58;1.13;;;;;;;;;;4878832;29;20024;-70
2024/03/03 11:19:47;;;;;;;0.98;0.93;;;;;;;;;;4875970;29;20122;-70
2024/03/03 11:22:22;;;;;;;0.90;0.77;;;;;;;;;;4877305;29;20465;-70
2024/03/03 11:24:58;;;;;;;1.65;1.17;;;;;;;;;;4870127;29;20383;-70
2024/03/03 11:27:24;;;;;;;0.73;0.65;;;;;;;;;;4870006;29;20442;-70
2024/03/03 11:29:50;;;;;;;0.05;0.03;;;;;;;;;;4872549;29;20028;-70
2024/03/03 11:32:16;;;;;;;0.40;0.40;;;;;;;;;;4878238;29;20025;-70
2024/03/03 11:34:43;;;;;;;1.52;0.65;;;;;;;;;;4867131;29;20053;-70
2024/03/03 11:37:09;;;;;;;0.35;0.35;;;;;;;;;;4872281;29;20090;-70
2024/03/03 11:39:34;;;;;;;0.43;0.35;;;;;;;;;;4870943;29;20108;-70
2024/03/03 11:42:17;;;;;;;0.52;0.52;;;;;;;;;;4875825;29;20136;-70
2024/03/03 11:44:49;;;;;;;1.50;1.08;;;;;;;;;;4867500;29;20026;-71
2024/03/03 11:47:15;;;;;;;1.85;0.73;;;;;;;;;;4861205;29;20410;-70
2024/03/03 11:49:43;;;;;;;0.30;0.30;;;;;;;;;;4874034;29;20029;-71
2024/03/03 11:52:09;;;;;;;0.47;0.47;;;;;;;;;;4876032;29;20284;-70
2024/03/03 11:54:38;;;;;;;0.50;0.32;;;;;;;;;;4877976;29;20033;-70
2024/03/03 11:57:05;;;;;;;0.35;0.35;;;;;;;;;;4876066;29;20035;-70
2024/03/03 11:59:31;;;;;;;0.80;0.47;;;;;;;;;;4872246;29;20362;-71
2024/03/03 12:01:58;;;;;;;1.42;1.13;;;;;;;;;;4859961;29;20501;-70
2024/03/03 12:04:23;;;;;;;0.25;0.25;;;;;;;;;;4877179;29;20020;-71
2024/03/03 12:06:48;;;;;;;0.47;0.47;;;;;;;;;;4877401;29;20036;-71
2024/03/03 12:09:17;;;;;;;0.40;0.40;;;;;;;;;;4873984;29;20021;-71
2024/03/03 12:11:42;;;;;;;0.32;0.32;;;;;;;;;;4873438;29;20752;-71
2024/03/03 12:14:07;;;;;;;0.73;0.60;;;;;;;;;;4870433;29;20060;-71
2024/03/03 12:16:33;;;;;;;0.10;0.10;;;;;;;;;;4875883;29;20033;-71
2024/03/03 12:18:58;;;;;;;0.30;0.30;;;;;;;;;;4880584;29;20391;-70
2024/03/03 12:21:23;;;;;;;1.55;1.08;;;;;;;;;;4874238;29;20036;-71
2024/03/03 12:23:49;;;;;;;0.50;0.50;;;;;;;;;;4870424;29;20029;-71
2024/03/03 12:26:14;;;;;;;0.38;0.38;;;;;;;;;;4873442;29;20021;-71
2024/03/03 12:28:40;;;;;;;0.20;0.20;;;;;;;;;;4875771;29;20390;-71
2024/03/03 12:31:05;;;;;;;1.15;0.85;;;;;;;;;;4869762;29;20065;-71
2024/03/03 12:33:30;;;;;;;0.67;0.50;;;;;;;;;;4874552;29;20500;-70
2024/03/03 12:35:56;;;;;;;1.05;0.55;;;;;;;;;;4878206;29;20036;-70
2024/03/03 12:38:21;;;;;;;0.30;0.30;;;;;;;;;;4877924;29;20478;-71
2024/03/03 12:40:47;;;;;;;0.73;0.70;;;;;;;;;;4871919;29;20025;-71
2024/03/03 12:43:15;;;;;;;0.43;0.43;;;;;;;;;;4876374;29;20136;-71
2024/03/03 12:45:44;;;;;;;0.55;0.40;;;;;;;;;;4876628;29;20037;-71
2024/03/03 12:48:10;;;;;;;0.68;0.68;;;;;;;;;;4868904;29;20513;-70
2024/03/03 12:50:35;;;;;;;3.70;1.05;;;;;;;;;;4865795;29;20022;-71
2024/03/03 12:53:00;;;;;;;0.20;0.20;;;;;;;;;;4870675;29;20060;-70
2024/03/03 12:55:26;;;;;;;0.05;0.05;;;;;;;;;;4872895;29;20082;-70
2024/03/03 12:57:51;;;;;;;0.55;0.55;;;;;;;;;;4870218;29;20040;-67
2024/03/03 13:00:17;;;;;;;0.55;0.52;;;;;;;;;;4874122;29;20025;-73
2024/03/03 13:02:43;;;;;;;0.90;0.85;;;;;;;;;;4870081;29;20122;-74
2024/03/03 13:05:12;;;;;;;0.60;0.60;;;;;;;;;;4851001;29;20128;-74
2024/03/03 13:07:37;;;;;;;0.20;0.20;;;;;;;;;;4873177;29;20025;-69
2024/03/03 13:10:12;;;;;;;0.70;0.55;;;;;;;;;;4877266;29;20496;-69
2024/03/03 13:12:37;;;;;;;0.47;0.47;;;;;;;;;;4874955;29;20045;-69
2024/03/03 13:15:03;;;;;;;0.10;0.10;;;;;;;;;;4877931;29;20029;-69
2024/03/03 13:17:28;;;;;;;0.10;0.10;;;;;;;;;;4876089;29;20025;-69
2024/03/03 13:19:54;;;;;;;1.33;1.23;;;;;;;;;;4878526;29;20049;-69
2024/03/03 13:22:19;;;;;;;0.35;0.35;;;;;;;;;;4880450;29;20033;-69
2024/03/03 13:24:54;;;;;;;1.02;1.00;;;;;;;;;;4874865;29;20029;-68
2024/03/03 13:27:20;;;;;;;0.10;0.10;;;;;;;;;;4872908;29;20029;-68
2024/03/03 13:29:48;;;;;;;0.80;0.77;;;;;;;;;;4880823;29;20610;-68
2024/03/03 13:32:14;;;;;;;0.40;0.40;;;;;;;;;;4880973;29;20029;-68
2024/03/03 13:34:40;;;;;;;0.55;0.38;;;;;;;;;;4881275;29;20040;-68
2024/03/03 13:37:07;;;;;;;0.20;0.20;;;;;;;;;;4880452;29;20043;-68
2024/03/03 13:39:32;;;;;;;0.80;0.80;;;;;;;;;;4876231;29;20032;-68
2024/03/03 13:41:57;;;;;;;0.57;0.57;;;;;;;;;;4871641;29;20044;-68
2024/03/03 13:44:22;;;;;;;0.20;0.20;;;;;;;;;;4876836;29;20048;-68
2024/03/03 13:46:47;;;;;;;0.63;0.63;;;;;;;;;;4876803;29;20271;-67
2024/03/03 13:49:13;;;;;;;0.20;0.20;;;;;;;;;;4880336;29;20013;-67
2024/03/03 13:51:39;;;;;;;0.60;0.60;;;;;;;;;;4873542;29;20545;-66
2024/03/03 13:54:04;;;;;;;0.23;0.23;;;;;;;;;;4879873;29;20049;-66
2024/03/03 13:56:29;;;;;;;0.20;0.20;;;;;;;;;;4879525;29;20036;-66
2024/03/03 13:58:55;;;;;;;0.22;0.22;;;;;;;;;;4879655;29;20268;-67
2024/03/03 14:01:20;;;;;;;0.98;0.70;;;;;;;;;;4880968;29;20041;-67
2024/03/03 14:03:45;;;;;;;0.45;0.45;;;;;;;;;;4880463;29;20108;-67
2024/03/03 14:06:11;;;;;;;0.50;0.47;;;;;;;;;;4880453;29;20363;-67
2024/03/03 14:08:36;;;;;;;0.40;0.40;;;;;;;;;;4880007;29;20707;-67
2024/03/03 14:11:02;;;;;;;1.05;0.85;;;;;;;;;;4880223;29;20040;-67
2024/03/03 14:13:27;;;;;;;0.30;0.20;;;;;;;;;;4880452;29;20017;-66
2024/03/03 14:15:52;;;;;;;0.20;0.20;;;;;;;;;;4880426;29;20265;-67
2024/03/03 14:18:18;;;;;;;0.57;0.57;;;;;;;;;;4879837;29;20025;-67
2024/03/03 14:20:43;;;;;;;0.20;0.20;;;;;;;;;;4880450;29;20267;-67
2024/03/03 14:23:08;;;;;;;0.47;0.47;;;;;;;;;;4878494;29;20024;-66
2024/03/03 14:25:34;;;;;;;0.30;0.30;;;;;;;;;;4880635;29;20052;-66
2024/03/03 14:27:59;;;;;;;0.50;0.50;;;;;;;;;;4880032;29;20260;-66
2024/03/03 14:30:25;;;;;;;0.73;0.70;;;;;;;;;;4880047;29;20029;-67
2024/03/03 14:32:58;;;;;;;0.25;0.25;;;;;;;;;;4880458;29;20029;-68
2024/03/03 14:35:23;;;;;;;1.65;0.82;;;;;;;;;;4880804;29;20029;-68